createdAt,value
2018-07-02T00:01:49.492Z,20.16
2018-07-02T00:04:15.804Z,20.17
2018-07-02T00:06:42.165Z,20.13
2018-07-02T00:09:08.449Z,20.11
2018-07-02T00:11:34.767Z,20.10
2018-07-02T00:14:01.078Z,20.10
2018-07-02T00:16:27.432Z,20.09
2018-07-02T00:18:53.747Z,20.05
2018-07-02T00:21:20.057Z,20.02
2018-07-02T00:23:46.378Z,20.02
2018-07-02T00:26:12.705Z,20.01
2018-07-02T00:28:39.032Z,20.01
2018-07-02T00:31:05.347Z,20.02
2018-07-02T00:33:31.666Z,20.01
2018-07-02T00:35:57.985Z,20.02
2018-07-02T00:38:24.302Z,19.99
2018-07-02T00:40:50.615Z,19.96
2018-07-02T00:43:16.971Z,19.99
2018-07-02T00:45:43.287Z,19.97
2018-07-02T00:48:09.599Z,19.94
2018-07-02T00:50:35.918Z,19.93
2018-07-02T00:53:02.228Z,19.90
2018-07-02T00:55:28.546Z,19.87
2018-07-02T00:57:54.858Z,19.80
2018-07-02T01:00:21.176Z,19.74
2018-07-02T01:02:47.490Z,19.71
2018-07-02T01:05:13.814Z,19.68
2018-07-02T01:07:40.125Z,19.64
2018-07-02T01:10:06.443Z,19.62
2018-07-02T01:12:32.757Z,19.59
2018-07-02T01:14:59.069Z,19.58
2018-07-02T01:17:25.395Z,19.56
2018-07-02T01:19:51.764Z,19.53
2018-07-02T01:22:18.083Z,19.49
2018-07-02T01:24:44.403Z,19.45
2018-07-02T01:27:10.763Z,19.41
2018-07-02T01:29:37.079Z,19.39
2018-07-02T01:32:03.408Z,19.38
2018-07-02T01:34:29.733Z,19.37
2018-07-02T01:36:56.046Z,19.41
2018-07-02T01:39:22.367Z,19.42
2018-07-02T01:41:48.692Z,19.40
2018-07-02T01:44:15.041Z,19.39
2018-07-02T01:46:41.352Z,19.37
2018-07-02T01:49:07.667Z,19.35
2018-07-02T01:51:33.982Z,19.33
2018-07-02T01:54:00.303Z,19.32
2018-07-02T01:56:26.619Z,19.30
2018-07-02T01:58:52.930Z,19.27
2018-07-02T02:01:19.245Z,19.27
2018-07-02T02:03:45.558Z,19.29
2018-07-02T02:06:11.903Z,19.32
2018-07-02T02:08:38.284Z,19.33
2018-07-02T02:11:04.638Z,19.34
2018-07-02T02:13:30.983Z,19.35
2018-07-02T02:15:57.275Z,19.35
2018-07-02T02:18:23.617Z,19.36
2018-07-02T02:20:49.941Z,19.35
2018-07-02T02:23:16.260Z,19.35
2018-07-02T02:25:42.573Z,19.34
2018-07-02T02:28:08.923Z,19.32
2018-07-02T02:30:35.245Z,19.31
2018-07-02T02:33:01.565Z,19.31
2018-07-02T02:35:27.888Z,19.29
2018-07-02T02:37:54.198Z,19.26
2018-07-02T02:40:20.521Z,19.25
2018-07-02T02:42:46.840Z,19.25
2018-07-02T02:45:13.186Z,19.24
2018-07-02T02:47:39.467Z,19.25
2018-07-02T02:50:05.822Z,19.25
2018-07-02T02:52:32.128Z,19.25
2018-07-02T02:54:58.448Z,19.25
2018-07-02T02:57:24.766Z,19.25
2018-07-02T02:59:51.080Z,19.23
2018-07-02T03:02:17.399Z,19.16
2018-07-02T03:04:43.709Z,19.15
2018-07-02T03:07:10.025Z,19.13
2018-07-02T03:09:36.358Z,19.08
2018-07-02T03:12:02.674Z,19.03
2018-07-02T03:14:28.992Z,18.99
2018-07-02T03:16:55.355Z,18.99
2018-07-02T03:19:21.674Z,18.97
2018-07-02T03:21:47.989Z,18.93
2018-07-02T03:24:14.312Z,18.95
2018-07-02T03:26:40.626Z,18.99
2018-07-02T03:29:06.949Z,18.99
2018-07-02T03:31:33.266Z,18.97
2018-07-02T03:33:59.585Z,19.02
2018-07-02T03:36:25.903Z,19.07
2018-07-02T03:38:52.224Z,19.05
2018-07-02T03:41:18.543Z,19.02
2018-07-02T03:43:44.862Z,18.99
2018-07-02T03:46:11.185Z,18.93
2018-07-02T03:48:37.501Z,18.90
2018-07-02T03:51:03.818Z,18.85
2018-07-02T03:53:30.137Z,18.83
2018-07-02T03:55:56.454Z,18.88
2018-07-02T03:58:22.771Z,18.90
2018-07-02T04:00:49.092Z,18.88
2018-07-02T04:03:15.429Z,18.91
2018-07-02T04:05:41.725Z,18.96
2018-07-02T04:08:08.044Z,19.00
2018-07-02T04:10:34.366Z,18.98
2018-07-02T04:13:00.692Z,18.91
2018-07-02T04:15:27.011Z,18.90
2018-07-02T04:17:53.332Z,18.92
2018-07-02T04:20:19.647Z,18.91
2018-07-02T04:22:46.002Z,18.89
2018-07-02T04:25:12.324Z,18.95
2018-07-02T04:27:38.641Z,18.98
2018-07-02T04:30:04.955Z,18.98
2018-07-02T04:32:31.270Z,19.03
2018-07-02T04:34:57.624Z,18.95
2018-07-02T04:37:23.901Z,18.94
2018-07-02T04:39:50.222Z,18.95
2018-07-02T04:42:16.543Z,18.90
2018-07-02T04:44:42.860Z,18.90
2018-07-02T04:47:09.181Z,18.88
2018-07-02T04:49:35.495Z,18.89
2018-07-02T04:52:01.871Z,18.93
2018-07-02T04:54:28.155Z,19.02
2018-07-02T04:56:54.534Z,19.05
2018-07-02T04:59:20.807Z,19.09
2018-07-02T05:01:47.130Z,19.12
2018-07-02T05:04:13.450Z,19.16
2018-07-02T05:06:39.759Z,19.23
2018-07-02T05:09:06.074Z,19.21
2018-07-02T05:11:32.413Z,19.26
2018-07-02T05:13:58.737Z,19.30
2018-07-02T05:16:25.061Z,19.33
2018-07-02T05:18:51.413Z,19.39
2018-07-02T05:21:17.731Z,19.41
2018-07-02T05:23:44.046Z,19.41
2018-07-02T05:26:10.361Z,19.39
2018-07-02T05:28:36.687Z,19.41
2018-07-02T05:31:03.022Z,19.39
2018-07-02T05:33:29.340Z,19.41
2018-07-02T05:35:55.653Z,19.46
2018-07-02T05:38:21.967Z,19.53
2018-07-02T05:40:48.281Z,19.60
2018-07-02T05:43:14.592Z,19.68
2018-07-02T05:45:40.932Z,19.76
2018-07-02T05:48:07.244Z,19.82
2018-07-02T05:50:33.556Z,19.91
2018-07-02T05:52:59.882Z,19.94
2018-07-02T05:55:26.193Z,19.99
2018-07-02T05:57:52.504Z,20.04
2018-07-02T06:00:18.898Z,20.08
2018-07-02T06:02:45.139Z,20.15
2018-07-02T06:05:11.449Z,20.15
2018-07-02T06:07:37.766Z,20.20
2018-07-02T06:10:04.079Z,20.20
2018-07-02T06:12:30.398Z,20.19
2018-07-02T06:14:56.727Z,20.16
2018-07-02T06:17:23.042Z,20.13
2018-07-02T06:19:49.394Z,20.12
2018-07-02T06:22:15.714Z,20.17
2018-07-02T06:24:42.061Z,20.24
2018-07-02T06:27:08.339Z,20.27
2018-07-02T06:29:34.652Z,20.27
2018-07-02T06:32:00.973Z,20.28
2018-07-02T06:34:27.288Z,20.29
2018-07-02T06:36:53.612Z,20.43
2018-07-02T06:39:19.933Z,20.59
2018-07-02T06:41:46.249Z,20.67
2018-07-02T06:44:12.574Z,20.82
2018-07-02T06:46:38.884Z,20.95
2018-07-02T06:49:05.201Z,21.12
2018-07-02T06:51:31.528Z,21.27
2018-07-02T06:53:57.847Z,21.40
2018-07-02T06:56:24.161Z,21.53
2018-07-02T06:58:50.476Z,21.53
2018-07-02T07:01:16.806Z,21.62
2018-07-02T07:03:43.113Z,21.74
2018-07-02T07:06:09.436Z,21.85
2018-07-02T07:08:35.798Z,21.89
2018-07-02T07:11:02.095Z,21.95
2018-07-02T07:13:28.411Z,22.10
2018-07-02T07:15:54.735Z,22.14
2018-07-02T07:18:21.048Z,22.32
2018-07-02T07:20:47.371Z,22.37
2018-07-02T07:23:13.703Z,22.46
2018-07-02T07:25:40.021Z,22.56
2018-07-02T07:28:06.348Z,22.59
2018-07-02T07:30:32.657Z,22.61
2018-07-02T07:32:58.972Z,22.63
2018-07-02T07:35:25.287Z,22.76
2018-07-02T07:37:51.601Z,22.90
2018-07-02T07:40:17.912Z,22.97
2018-07-02T07:42:44.254Z,23.05
2018-07-02T07:45:10.536Z,23.11
2018-07-02T07:47:36.850Z,22.99
2018-07-02T07:50:03.178Z,23.03
2018-07-02T07:52:29.481Z,23.16
2018-07-02T07:54:55.823Z,23.30
2018-07-02T07:57:22.130Z,23.42
2018-07-02T07:59:48.443Z,23.52
2018-07-02T08:02:14.768Z,23.60
2018-07-02T08:04:41.059Z,23.68
2018-07-02T08:07:07.372Z,23.75
2018-07-02T08:09:33.680Z,23.71
2018-07-02T08:11:59.997Z,23.73
2018-07-02T08:14:26.313Z,23.69
2018-07-02T08:16:52.628Z,23.58
2018-07-02T08:19:18.972Z,23.61
2018-07-02T08:21:45.270Z,23.69
2018-07-02T08:24:11.579Z,23.78
2018-07-02T08:26:37.887Z,23.84
2018-07-02T08:29:04.203Z,23.81
2018-07-02T08:31:30.510Z,23.87
2018-07-02T08:33:56.861Z,23.95
2018-07-02T08:36:23.175Z,23.99
2018-07-02T08:38:49.499Z,24.10
2018-07-02T08:41:15.811Z,24.18
2018-07-02T08:43:42.193Z,24.26
2018-07-02T08:46:08.504Z,24.36
2018-07-02T08:48:34.820Z,24.49
2018-07-02T08:51:01.147Z,24.60
2018-07-02T08:53:27.464Z,24.59
2018-07-02T08:55:53.783Z,24.63
2018-07-02T08:58:20.107Z,24.71
2018-07-02T09:00:46.412Z,24.82
2018-07-02T09:03:12.734Z,24.91
2018-07-02T09:05:39.156Z,24.96
2018-07-02T09:08:05.474Z,25.01
2018-07-02T09:10:31.850Z,25.11
2018-07-02T09:12:58.173Z,25.19
2018-07-02T09:15:24.480Z,25.28
2018-07-02T09:17:50.806Z,25.35
2018-07-02T09:20:17.117Z,25.43
2018-07-02T09:22:43.429Z,25.48
2018-07-02T09:25:09.789Z,25.53
2018-07-02T09:27:36.101Z,25.54
2018-07-02T09:30:02.473Z,25.58
2018-07-02T09:32:28.760Z,25.61
2018-07-02T09:34:55.067Z,25.69
2018-07-02T09:37:21.483Z,25.76
2018-07-02T09:39:47.788Z,25.78
2018-07-02T09:42:14.295Z,25.84
2018-07-02T09:44:40.612Z,25.90
2018-07-02T09:47:06.925Z,25.96
2018-07-02T09:49:33.311Z,26.01
2018-07-02T09:51:59.566Z,26.06
2018-07-02T09:54:25.875Z,26.08
2018-07-02T09:56:52.188Z,26.14
2018-07-02T09:59:18.527Z,26.21
2018-07-02T10:01:44.855Z,26.29
2018-07-02T10:04:11.165Z,26.36
2018-07-02T10:06:37.486Z,26.39
2018-07-02T10:09:03.810Z,26.41
2018-07-02T10:11:30.164Z,26.41
2018-07-02T10:13:56.500Z,26.43
2018-07-02T10:16:22.811Z,26.45
2018-07-02T10:18:49.134Z,26.39
2018-07-02T10:21:15.447Z,26.42
2018-07-02T10:23:41.779Z,26.48
2018-07-02T10:26:08.072Z,26.53
2018-07-02T10:28:34.393Z,26.58
2018-07-02T10:31:00.729Z,26.66
2018-07-02T10:33:27.020Z,26.69
2018-07-02T10:35:53.333Z,26.75
2018-07-02T10:38:19.684Z,26.77
2018-07-02T10:40:46.002Z,26.76
2018-07-02T10:43:12.363Z,26.75
2018-07-02T10:45:38.685Z,26.74
2018-07-02T10:48:05.003Z,26.73
2018-07-02T10:50:31.318Z,26.72
2018-07-02T10:52:57.624Z,26.73
2018-07-02T10:55:23.939Z,26.74
2018-07-02T10:57:50.258Z,26.75
2018-07-02T11:00:16.573Z,26.75
2018-07-02T11:02:42.883Z,26.77
2018-07-02T11:05:09.195Z,26.83
2018-07-02T11:07:35.508Z,26.87
2018-07-02T11:10:01.815Z,26.87
2018-07-02T11:12:28.159Z,26.90
2018-07-02T11:14:54.457Z,26.91
2018-07-02T11:17:20.769Z,26.91
2018-07-02T11:19:47.083Z,26.88
2018-07-02T11:22:13.427Z,26.90
2018-07-02T11:24:39.740Z,26.93
2018-07-02T11:27:06.048Z,26.94
2018-07-02T11:29:32.447Z,26.92
2018-07-02T11:31:58.759Z,26.91
2018-07-02T11:34:25.069Z,26.92
2018-07-02T11:36:51.375Z,26.91
2018-07-02T11:39:17.691Z,26.93
2018-07-02T11:41:44.006Z,26.95
2018-07-02T11:44:10.411Z,26.96
2018-07-02T11:46:36.669Z,26.98
2018-07-02T11:49:02.985Z,27.02
2018-07-02T11:51:29.297Z,27.03
2018-07-02T11:53:55.606Z,27.04
2018-07-02T11:56:21.944Z,27.00
2018-07-02T11:58:48.256Z,26.99
2018-07-02T12:01:14.565Z,26.98
2018-07-02T12:03:40.871Z,26.97
2018-07-02T12:06:09.196Z,26.98
2018-07-02T12:08:33.569Z,26.98
2018-07-02T12:10:59.887Z,26.99
2018-07-02T12:13:26.191Z,26.93
2018-07-02T12:15:52.507Z,26.91
2018-07-02T12:18:18.832Z,26.91
2018-07-02T12:20:45.145Z,26.91
2018-07-02T12:23:11.453Z,26.89
2018-07-02T12:25:37.763Z,26.83
2018-07-02T12:28:04.073Z,26.80
2018-07-02T12:30:30.384Z,26.75
2018-07-02T12:32:56.727Z,26.72
2018-07-02T12:35:23.349Z,26.65
2018-07-02T12:37:49.664Z,26.60
2018-07-02T12:40:15.978Z,26.57
2018-07-02T12:42:42.295Z,26.56
2018-07-02T12:45:08.630Z,26.54
2018-07-02T12:47:34.946Z,26.50
2018-07-02T12:50:01.286Z,26.46
2018-07-02T12:52:27.605Z,26.45
2018-07-02T12:54:53.925Z,26.47
2018-07-02T12:57:20.240Z,26.48
2018-07-02T12:59:46.571Z,26.49
2018-07-02T13:02:12.883Z,26.49
2018-07-02T13:04:39.228Z,26.50
2018-07-02T13:07:05.543Z,26.50
2018-07-02T13:09:31.850Z,26.52
2018-07-02T13:11:58.169Z,26.54
2018-07-02T13:14:24.485Z,26.56
2018-07-02T13:16:50.801Z,26.55
2018-07-02T13:19:17.115Z,26.57
2018-07-02T13:21:43.445Z,26.56
2018-07-02T13:24:09.757Z,26.55
2018-07-02T13:26:36.067Z,26.54
2018-07-02T13:29:02.383Z,26.57
2018-07-02T13:31:28.694Z,26.58
2018-07-02T13:33:55.042Z,26.62
2018-07-02T13:36:21.370Z,26.64
2018-07-02T13:38:47.664Z,26.64
2018-07-02T13:41:13.982Z,26.62
2018-07-02T13:43:40.288Z,26.62
2018-07-02T13:46:06.601Z,26.58
2018-07-02T13:48:32.916Z,26.54
2018-07-02T13:50:59.224Z,26.50
2018-07-02T13:53:25.547Z,26.40
2018-07-02T13:55:51.862Z,26.36
2018-07-02T13:58:18.177Z,26.34
2018-07-02T14:00:44.489Z,26.40
2018-07-02T14:03:10.828Z,26.41
2018-07-02T14:05:37.141Z,26.36
2018-07-02T14:08:03.479Z,26.34
2018-07-02T14:10:29.791Z,26.24
2018-07-02T14:12:56.110Z,26.16
2018-07-02T14:15:22.438Z,26.15
2018-07-02T14:17:48.747Z,26.19
2018-07-02T14:20:15.067Z,26.24
2018-07-02T14:22:41.391Z,26.29
2018-07-02T14:25:07.710Z,26.28
2018-07-02T14:27:34.019Z,26.29
2018-07-02T14:30:00.331Z,26.28
2018-07-02T14:32:26.674Z,26.25
2018-07-02T14:34:52.985Z,26.21
2018-07-02T14:37:19.304Z,26.05
2018-07-02T14:39:45.613Z,24.95
2018-07-02T14:42:11.931Z,24.03
2018-07-02T14:44:38.286Z,23.62
2018-07-02T14:47:04.568Z,23.43
2018-07-02T14:49:30.891Z,23.34
2018-07-02T14:51:57.220Z,23.15
2018-07-02T14:54:23.551Z,23.27
2018-07-02T14:56:49.864Z,23.41
2018-07-02T14:59:16.188Z,23.48
2018-07-02T15:01:42.509Z,23.68
2018-07-02T15:04:08.832Z,23.84
2018-07-02T15:06:35.155Z,23.97
2018-07-02T15:09:01.493Z,24.10
2018-07-02T15:11:27.838Z,24.15
2018-07-02T15:13:54.154Z,24.28
2018-07-02T15:16:20.464Z,24.44
2018-07-02T15:18:46.818Z,24.48
2018-07-02T15:21:13.137Z,24.60
2018-07-02T15:23:39.450Z,24.73
2018-07-02T15:26:05.784Z,24.90
2018-07-02T15:28:32.107Z,25.04
2018-07-02T15:30:58.436Z,25.10
2018-07-02T15:33:24.832Z,25.21
2018-07-02T15:35:51.177Z,25.26
2018-07-02T15:38:17.468Z,25.21
2018-07-02T15:40:43.782Z,25.27
2018-07-02T15:43:10.098Z,25.33
2018-07-02T15:45:36.410Z,25.36
2018-07-02T15:48:02.733Z,25.35
2018-07-02T15:50:29.048Z,25.39
2018-07-02T15:52:55.389Z,25.39
2018-07-02T15:55:21.701Z,25.34
2018-07-02T15:57:48.020Z,25.36
2018-07-02T16:00:14.347Z,25.31
2018-07-02T16:02:40.659Z,25.34
2018-07-02T16:05:06.969Z,25.36
2018-07-02T16:07:33.292Z,25.29
2018-07-02T16:09:59.606Z,25.28
2018-07-02T16:12:25.954Z,25.31
2018-07-02T16:14:52.273Z,25.28
2018-07-02T16:17:18.594Z,25.28
2018-07-02T16:19:44.901Z,25.32
2018-07-02T16:22:11.223Z,25.30
2018-07-02T16:24:37.552Z,25.31
2018-07-02T16:27:03.868Z,25.31
2018-07-02T16:29:30.203Z,25.35
2018-07-02T16:31:56.497Z,25.34
2018-07-02T16:34:22.820Z,25.28
2018-07-02T16:36:49.143Z,25.27
2018-07-02T16:39:15.468Z,25.26
2018-07-02T16:41:41.796Z,25.25
2018-07-02T16:44:08.123Z,25.21
2018-07-02T16:46:34.454Z,25.19
2018-07-02T16:49:00.774Z,25.16
2018-07-02T16:51:27.094Z,25.13
2018-07-02T16:53:53.407Z,25.21
2018-07-02T16:56:19.730Z,25.28
2018-07-02T16:58:46.047Z,25.29
2018-07-02T17:01:12.365Z,25.32
2018-07-02T17:03:38.699Z,25.38
2018-07-02T17:06:05.004Z,25.36
2018-07-02T17:08:31.323Z,25.30
2018-07-02T17:10:57.642Z,25.25
2018-07-02T17:13:24.007Z,25.18
2018-07-02T17:15:50.278Z,25.13
2018-07-02T17:18:16.590Z,25.08
2018-07-02T17:20:42.905Z,25.04
2018-07-02T17:23:09.226Z,24.97
2018-07-02T17:25:35.541Z,24.96
2018-07-02T17:28:01.865Z,24.91
2018-07-02T17:30:28.180Z,24.90
2018-07-02T17:32:54.488Z,24.86
2018-07-02T17:35:20.809Z,24.83
2018-07-02T17:37:47.149Z,24.83
2018-07-02T17:40:13.467Z,24.82
2018-07-02T17:42:39.789Z,24.85
2018-07-02T17:45:06.104Z,24.84
2018-07-02T17:47:32.418Z,24.81
2018-07-02T17:49:58.762Z,24.82
2018-07-02T17:52:25.080Z,24.79
2018-07-02T17:54:51.416Z,24.76
2018-07-02T17:57:17.739Z,24.75
2018-07-02T17:59:44.057Z,24.71
2018-07-02T18:02:10.381Z,24.75
2018-07-02T18:04:36.703Z,24.67
2018-07-02T18:07:03.017Z,24.66
2018-07-02T18:09:29.324Z,24.58
2018-07-02T18:11:55.749Z,24.51
2018-07-02T18:14:22.071Z,24.48
2018-07-02T18:16:48.392Z,24.45
2018-07-02T18:19:14.718Z,24.42
2018-07-02T18:21:41.047Z,24.37
2018-07-02T18:24:07.360Z,24.34
2018-07-02T18:26:33.717Z,24.29
2018-07-02T18:29:00.031Z,24.24
2018-07-02T18:31:26.351Z,24.20
2018-07-02T18:33:52.665Z,24.18
2018-07-02T18:36:18.989Z,24.15
2018-07-02T18:38:45.305Z,24.11
2018-07-02T18:41:11.648Z,24.08
2018-07-02T18:43:37.965Z,24.04
2018-07-02T18:46:04.285Z,24.02
2018-07-02T18:48:30.604Z,23.95
2018-07-02T18:50:56.938Z,23.98
2018-07-02T18:53:23.257Z,23.94
2018-07-02T18:55:49.570Z,23.88
2018-07-02T18:58:15.888Z,23.85
2018-07-02T19:00:42.224Z,23.81
2018-07-02T19:03:08.573Z,23.77
2018-07-02T19:05:34.922Z,23.74
2018-07-02T19:08:01.227Z,23.68
2018-07-02T19:10:27.625Z,23.63
2018-07-02T19:12:53.928Z,23.59
2018-07-02T19:15:20.247Z,23.58
2018-07-02T19:17:46.574Z,23.53
2018-07-02T19:20:12.914Z,23.53
2018-07-02T19:22:39.236Z,23.53
2018-07-02T19:25:05.577Z,23.55
2018-07-02T19:27:31.904Z,23.62
2018-07-02T19:29:58.264Z,23.65
2018-07-02T19:32:24.600Z,23.66
2018-07-02T19:34:50.920Z,23.62
2018-07-02T19:37:17.265Z,23.59
2018-07-02T19:39:43.591Z,23.57
2018-07-02T19:42:09.919Z,23.54
2018-07-02T19:44:36.242Z,23.51
2018-07-02T19:47:02.555Z,23.52
2018-07-02T19:49:28.873Z,23.52
2018-07-02T19:51:55.194Z,23.52
2018-07-02T19:54:21.549Z,23.49
2018-07-02T19:56:47.951Z,23.50
2018-07-02T19:59:14.190Z,23.48
2018-07-02T20:01:40.509Z,23.49
2018-07-02T20:04:06.819Z,23.48
2018-07-02T20:06:33.151Z,23.46
2018-07-02T20:08:59.617Z,23.46
2018-07-02T20:11:25.983Z,23.47
2018-07-02T20:13:52.292Z,23.46
2018-07-02T20:16:18.613Z,23.44
2018-07-02T20:18:44.946Z,23.45
2018-07-02T20:21:11.249Z,23.45
2018-07-02T20:23:37.573Z,23.45
2018-07-02T20:26:03.891Z,23.45
2018-07-02T20:28:30.211Z,23.45
2018-07-02T20:30:56.541Z,23.44
2018-07-02T20:33:22.905Z,23.43
2018-07-02T20:35:49.218Z,23.45
2018-07-02T20:38:15.882Z,23.44
2018-07-02T20:40:42.188Z,23.44
2018-07-02T20:43:08.502Z,23.44
2018-07-02T20:45:34.826Z,23.40
2018-07-02T20:48:01.135Z,23.40
2018-07-02T20:50:27.453Z,23.36
2018-07-02T20:52:53.797Z,23.35
2018-07-02T20:55:20.130Z,23.32
2018-07-02T20:57:46.446Z,23.28
2018-07-02T21:00:12.779Z,23.24
2018-07-02T21:02:39.157Z,23.21
2018-07-02T21:05:05.495Z,23.16
2018-07-02T21:07:31.780Z,23.13
2018-07-02T21:09:58.163Z,23.08
2018-07-02T21:12:24.476Z,23.07
2018-07-02T21:14:50.789Z,23.04
2018-07-02T21:17:17.104Z,23.03
2018-07-02T21:19:43.423Z,23.03
2018-07-02T21:22:15.789Z,23.01
2018-07-02T21:24:42.114Z,23.02
2018-07-02T21:27:08.436Z,22.94
2018-07-02T21:29:34.764Z,22.92
2018-07-02T21:32:01.084Z,22.89
2018-07-02T21:34:27.395Z,22.86
2018-07-02T21:36:53.743Z,22.83
2018-07-02T21:39:20.079Z,22.86
2018-07-02T21:41:46.490Z,22.85
2018-07-02T21:44:12.712Z,22.79
2018-07-02T21:46:39.032Z,22.77
2018-07-02T21:49:05.337Z,22.78
2018-07-02T21:51:31.656Z,22.76
2018-07-02T21:53:57.969Z,22.60
2018-07-02T21:56:24.296Z,22.61
2018-07-02T21:58:50.610Z,22.53
2018-07-02T22:01:16.930Z,22.34
2018-07-02T22:03:43.253Z,22.28
2018-07-02T22:06:09.577Z,22.33
2018-07-02T22:08:35.885Z,22.28
2018-07-02T22:11:02.315Z,22.20
2018-07-02T22:13:28.556Z,22.20
2018-07-02T22:15:54.872Z,22.30
2018-07-02T22:18:21.194Z,22.33
2018-07-02T22:20:47.536Z,22.25
2018-07-02T22:23:13.843Z,22.16
2018-07-02T22:25:40.157Z,22.18
2018-07-02T22:28:06.472Z,22.23
2018-07-02T22:30:32.823Z,22.22
2018-07-02T22:32:59.142Z,22.29
2018-07-02T22:35:25.463Z,22.36
2018-07-02T22:37:51.809Z,22.27
2018-07-02T22:40:18.116Z,22.32
2018-07-02T22:42:44.457Z,22.33
2018-07-02T22:45:10.774Z,22.33
2018-07-02T22:47:37.085Z,22.32
2018-07-02T22:50:03.397Z,22.27
2018-07-02T22:52:29.711Z,22.24
2018-07-02T22:54:56.033Z,22.29
2018-07-02T22:57:22.358Z,22.29
2018-07-02T22:59:48.672Z,22.28
2018-07-02T23:02:14.992Z,22.32
2018-07-02T23:04:41.321Z,22.36
2018-07-02T23:07:07.633Z,22.37
2018-07-02T23:09:33.996Z,22.35
2018-07-02T23:12:00.305Z,22.33
2018-07-02T23:14:26.613Z,22.31
2018-07-02T23:16:52.930Z,22.24
2018-07-02T23:19:19.240Z,22.19
2018-07-02T23:21:45.559Z,22.21
2018-07-02T23:24:11.891Z,22.19
2018-07-02T23:26:38.201Z,22.19
2018-07-02T23:29:04.519Z,22.20
2018-07-02T23:31:30.861Z,22.16
2018-07-02T23:33:57.178Z,22.16
2018-07-02T23:36:23.490Z,22.16
2018-07-02T23:38:49.807Z,22.13
2018-07-02T23:41:16.130Z,22.14
2018-07-02T23:43:42.451Z,22.08
2018-07-02T23:46:08.761Z,22.08
2018-07-02T23:48:35.081Z,22.09
2018-07-02T23:51:01.389Z,22.09
2018-07-02T23:53:27.739Z,22.06
2018-07-02T23:55:54.044Z,22.03
2018-07-02T23:58:20.364Z,22.05
